Terminal Aerodrome Forecast
Issued by NWS Sioux Falls, SD

Home | Current Version | Previous Version | Text Only | Print | Product List | Glossary Off
Versions: 1 2 3 4 5 6 7 8 9 10 11 12 13 14 15 16 17

000
FTUS43 KFSD 242320
TAFHON
TAF
KHON 242320Z 2500/2524 10005KT P6SM -RA SCT008 OVC012
     FM250400 VRB04KT 4SM BR OVC008
     FM251500 01008KT P6SM OVC025
     FM252000 19008KT P6SM VCTS OVC050CB=

USA.gov is the U.S. government's official web portal to all federal, state and local government web resources and services.